createdAt,value
2023-03-21T00:00:42.832Z,59.30
2023-03-21T00:03:09.535Z,59.42
2023-03-21T00:05:45.781Z,59.31
2023-03-21T00:08:12.498Z,59.26
2023-03-21T00:10:41.313Z,59.25
2023-03-21T00:13:13.473Z,59.53
2023-03-21T00:16:04.035Z,59.55
2023-03-21T00:18:41.909Z,59.54
2023-03-21T00:24:01.360Z,59.48
2023-03-21T00:26:28.309Z,59.52
2023-03-21T00:28:54.966Z,59.58
2023-03-21T00:31:21.605Z,59.57
2023-03-21T00:33:48.577Z,59.57
2023-03-21T00:36:16.140Z,59.59
2023-03-21T00:38:43.428Z,59.61
2023-03-21T00:41:23.378Z,59.66
2023-03-21T00:43:58.480Z,59.79
2023-03-21T00:46:30.031Z,59.62
2023-03-21T00:48:59.561Z,59.57
2023-03-21T00:51:27.086Z,59.84
2023-03-21T00:53:55.852Z,60.02
2023-03-21T00:56:23.228Z,60.06
2023-03-21T00:58:50.165Z,60.43
2023-03-21T01:01:17.571Z,60.82
2023-03-21T01:03:50.801Z,61.04
2023-03-21T01:06:19.650Z,61.30
2023-03-21T01:08:52.781Z,61.41
2023-03-21T01:11:25.788Z,61.78
2023-03-21T01:13:59.605Z,61.99
2023-03-21T01:16:31.942Z,62.17
2023-03-21T01:18:59.660Z,62.15
2023-03-21T01:21:26.532Z,62.51
2023-03-21T01:23:53.752Z,62.43
2023-03-21T01:26:20.999Z,62.52
2023-03-21T01:28:47.596Z,62.32
2023-03-21T01:31:16.985Z,62.17
2023-03-21T01:33:44.584Z,62.15
2023-03-21T01:36:19.308Z,62.40
2023-03-21T01:38:48.548Z,62.53
2023-03-21T01:41:41.907Z,62.30
2023-03-21T01:44:18.260Z,62.40
2023-03-21T01:49:41.025Z,62.69
2023-03-21T01:52:26.396Z,62.72
2023-03-21T01:54:58.693Z,62.78
2023-03-21T01:57:42.417Z,62.61
2023-03-21T02:00:15.474Z,62.88
2023-03-21T02:03:06.123Z,63.04
2023-03-21T02:06:01.390Z,63.16
2023-03-21T02:08:39.134Z,63.19
2023-03-21T02:11:07.834Z,63.52
2023-03-21T02:13:35.681Z,63.84
2023-03-21T02:16:15.426Z,64.24
2023-03-21T02:19:02.371Z,64.47
2023-03-21T02:21:47.198Z,64.86
2023-03-21T02:24:41.105Z,65.11
2023-03-21T02:27:24.465Z,65.13
2023-03-21T02:30:00.485Z,65.44
2023-03-21T02:32:39.126Z,65.54
2023-03-21T02:35:09.049Z,65.59
2023-03-21T02:37:44.619Z,66.02
2023-03-21T02:40:27.994Z,66.14
2023-03-21T02:43:22.156Z,66.21
2023-03-21T02:46:09.422Z,66.37
2023-03-21T02:48:50.300Z,66.36
2023-03-21T02:51:22.599Z,66.66
2023-03-21T02:54:24.932Z,66.76
2023-03-21T02:56:50.137Z,66.99
2023-03-21T02:59:19.972Z,67.04
2023-03-21T03:01:46.664Z,67.11
2023-03-21T03:04:21.367Z,67.30
2023-03-21T03:07:08.753Z,67.33
2023-03-21T03:09:53.991Z,67.45
2023-03-21T03:12:45.840Z,67.58
2023-03-21T03:15:51.924Z,67.61
2023-03-21T03:18:22.755Z,67.79
2023-03-21T03:21:00.817Z,68.04
2023-03-21T03:23:40.790Z,67.89
2023-03-21T03:26:35.422Z,67.88
2023-03-21T03:29:07.537Z,67.94
2023-03-21T03:31:39.700Z,68.06
2023-03-21T03:34:11.481Z,68.09
2023-03-21T03:36:47.679Z,68.16
2023-03-21T03:39:17.478Z,68.36
2023-03-21T03:42:25.326Z,68.40
2023-03-21T03:44:42.342Z,68.60
2023-03-21T03:47:20.117Z,68.79
2023-03-21T03:50:02.317Z,68.99
2023-03-21T03:52:35.780Z,69.13
2023-03-21T03:55:03.286Z,69.10
2023-03-21T03:57:30.222Z,69.22
2023-03-21T03:59:57.008Z,69.53
2023-03-21T04:02:23.723Z,69.57
2023-03-21T04:04:53.082Z,69.47
2023-03-21T04:07:21.575Z,69.51
2023-03-21T04:09:48.502Z,69.50
2023-03-21T04:12:15.422Z,69.69
2023-03-21T04:14:47.249Z,69.76
2023-03-21T04:17:15.774Z,69.59
2023-03-21T04:19:42.801Z,69.66
2023-03-21T04:22:09.588Z,69.79
2023-03-21T04:24:37.570Z,70.08
2023-03-21T04:27:05.960Z,70.16
2023-03-21T04:29:33.264Z,70.41
2023-03-21T04:32:00.220Z,70.43
2023-03-21T04:34:28.332Z,70.49
2023-03-21T04:36:55.734Z,70.45
2023-03-21T04:39:24.536Z,70.56
2023-03-21T04:41:51.650Z,70.57
2023-03-21T04:44:19.309Z,70.69
2023-03-21T04:46:46.226Z,70.83
2023-03-21T04:49:13.454Z,70.75
2023-03-21T04:51:41.117Z,70.87
2023-03-21T04:56:35.660Z,71.04
2023-03-21T04:59:08.289Z,71.23
2023-03-21T05:01:35.036Z,71.04
2023-03-21T05:04:03.424Z,70.99
2023-03-21T05:06:30.858Z,71.17
2023-03-21T05:09:01.773Z,71.22
2023-03-21T05:11:30.959Z,71.26
2023-03-21T05:13:58.890Z,71.30
2023-03-21T05:16:30.527Z,71.24
2023-03-21T05:19:04.293Z,71.20
2023-03-21T05:21:42.052Z,71.23
2023-03-21T05:24:12.273Z,71.34
2023-03-21T05:26:40.094Z,71.38
2023-03-21T05:29:07.938Z,71.40
2023-03-21T05:31:34.619Z,71.38
2023-03-21T05:34:01.519Z,71.55
2023-03-21T05:36:28.334Z,71.82
2023-03-21T05:38:55.226Z,71.67
2023-03-21T05:41:21.969Z,71.64
2023-03-21T05:43:48.616Z,71.83
2023-03-21T05:46:15.524Z,71.76
2023-03-21T05:48:48.068Z,71.93
2023-03-21T05:51:15.117Z,71.93
2023-03-21T05:53:42.089Z,72.14
2023-03-21T05:56:09.352Z,71.89
2023-03-21T05:58:35.974Z,71.87
2023-03-21T06:01:02.805Z,71.88
2023-03-21T06:03:29.519Z,72.12
2023-03-21T06:05:56.114Z,72.07
2023-03-21T06:08:23.197Z,72.12
2023-03-21T06:10:50.093Z,72.13
2023-03-21T06:13:16.796Z,72.25
2023-03-21T06:15:43.762Z,72.12
2023-03-21T06:18:10.929Z,72.05
2023-03-21T06:20:37.521Z,72.25
2023-03-21T06:23:04.394Z,72.16
2023-03-21T06:25:31.034Z,72.30
2023-03-21T06:27:57.684Z,72.12
2023-03-21T06:30:24.617Z,72.01
2023-03-21T06:32:51.439Z,71.87
2023-03-21T06:35:18.191Z,71.89
2023-03-21T06:37:46.410Z,71.54
2023-03-21T06:40:13.841Z,71.54
2023-03-21T06:42:40.612Z,71.68
2023-03-21T06:45:08.067Z,71.56
2023-03-21T06:47:35.023Z,71.29
2023-03-21T06:50:01.826Z,71.45
2023-03-21T06:52:28.749Z,71.36
2023-03-21T06:54:55.503Z,71.32
2023-03-21T06:57:22.138Z,71.29
2023-03-21T06:59:49.037Z,71.17
2023-03-21T07:02:16.045Z,70.92
2023-03-21T07:04:43.030Z,70.63
2023-03-21T07:07:09.823Z,70.69
2023-03-21T07:09:36.843Z,70.35
2023-03-21T07:12:03.608Z,70.10
2023-03-21T07:14:32.327Z,70.27
2023-03-21T07:17:00.894Z,69.96
2023-03-21T07:19:27.718Z,69.72
2023-03-21T07:21:54.834Z,69.81
2023-03-21T07:24:21.604Z,69.96
2023-03-21T07:26:48.216Z,69.73
2023-03-21T07:29:15.527Z,69.82
2023-03-21T07:31:42.688Z,69.68
2023-03-21T07:34:09.293Z,69.54
2023-03-21T07:36:37.246Z,69.67
2023-03-21T07:39:04.649Z,69.62
2023-03-21T07:41:31.350Z,69.51
2023-03-21T07:43:58.210Z,69.29
2023-03-21T07:46:25.427Z,69.24
2023-03-21T07:48:52.129Z,69.14
2023-03-21T07:51:19.005Z,69.13
2023-03-21T07:53:48.685Z,69.34
2023-03-21T07:56:16.020Z,69.23
2023-03-21T07:58:43.117Z,68.84
2023-03-21T08:01:09.818Z,68.64
2023-03-21T08:03:36.534Z,68.48
2023-03-21T08:06:03.910Z,68.21
2023-03-21T08:08:30.882Z,68.22
2023-03-21T08:10:57.578Z,68.35
2023-03-21T08:13:26.197Z,68.11
2023-03-21T08:15:53.542Z,68.06
2023-03-21T08:18:20.583Z,67.83
2023-03-21T08:20:53.503Z,67.90
2023-03-21T08:23:21.046Z,68.05
2023-03-21T08:25:52.031Z,67.95
2023-03-21T08:28:19.298Z,68.02
2023-03-21T08:30:46.498Z,68.02
2023-03-21T08:33:16.181Z,68.03
2023-03-21T08:35:43.331Z,67.80
2023-03-21T08:38:10.556Z,67.77
2023-03-21T08:40:37.342Z,67.76
2023-03-21T08:43:04.619Z,67.62
2023-03-21T08:45:31.729Z,67.64
2023-03-21T08:47:58.583Z,67.42
2023-03-21T08:50:29.726Z,67.42
2023-03-21T08:52:56.543Z,67.16
2023-03-21T08:55:23.238Z,66.91
2023-03-21T08:57:50.116Z,67.02
2023-03-21T09:00:18.195Z,66.67
2023-03-21T09:02:47.001Z,66.61
2023-03-21T09:05:14.563Z,66.53
2023-03-21T09:07:41.721Z,66.61
2023-03-21T09:10:26.953Z,66.33
2023-03-21T09:12:55.598Z,66.25
2023-03-21T09:15:25.043Z,66.21
2023-03-21T09:17:58.598Z,66.24
2023-03-21T09:20:31.079Z,66.16
2023-03-21T09:22:59.430Z,66.03
2023-03-21T09:25:29.626Z,66.31
2023-03-21T09:27:56.565Z,66.11
2023-03-21T09:30:26.110Z,66.05
2023-03-21T09:32:55.843Z,65.95
2023-03-21T09:35:24.767Z,66.09
2023-03-21T09:37:51.639Z,65.92
2023-03-21T09:40:32.084Z,66.00
2023-03-21T09:43:35.586Z,66.01
2023-03-21T09:46:15.562Z,65.82
2023-03-21T09:48:57.294Z,65.84
2023-03-21T09:51:29.199Z,66.06
2023-03-21T09:54:00.866Z,65.81
2023-03-21T09:56:28.136Z,65.67
2023-03-21T09:58:59.764Z,65.58
2023-03-21T10:01:34.326Z,65.38
2023-03-21T10:04:04.940Z,65.16
2023-03-21T10:06:32.265Z,64.82
2023-03-21T10:09:30.330Z,64.71
2023-03-21T10:12:21.922Z,64.49
2023-03-21T10:14:52.588Z,64.30
2023-03-21T10:17:33.790Z,64.28
2023-03-21T10:20:12.043Z,64.19
2023-03-21T10:22:39.707Z,64.09
2023-03-21T10:25:07.785Z,64.08
2023-03-21T10:27:37.389Z,63.87
2023-03-21T10:30:07.652Z,63.66
2023-03-21T10:32:35.931Z,63.88
2023-03-21T10:35:05.263Z,63.69
2023-03-21T10:37:32.727Z,63.47
2023-03-21T10:39:59.614Z,63.83
2023-03-21T10:42:33.263Z,63.86
2023-03-21T10:45:00.261Z,64.04
2023-03-21T10:47:34.957Z,63.75
2023-03-21T10:50:13.423Z,63.54
2023-03-21T10:52:51.845Z,63.43
2023-03-21T10:55:25.228Z,63.29
2023-03-21T10:58:11.205Z,63.06
2023-03-21T11:00:41.564Z,63.17
2023-03-21T11:03:31.619Z,63.03
2023-03-21T11:06:12.482Z,62.81
2023-03-21T11:08:44.162Z,62.79
2023-03-21T11:11:20.231Z,62.69
2023-03-21T11:13:57.143Z,62.65
2023-03-21T11:16:30.212Z,62.20
2023-03-21T11:19:02.118Z,62.45
2023-03-21T11:21:36.476Z,62.22
2023-03-21T11:24:04.301Z,61.92
2023-03-21T11:26:37.660Z,61.99
2023-03-21T11:29:23.316Z,61.57
2023-03-21T11:31:50.150Z,61.42
2023-03-21T11:34:33.986Z,61.29
2023-03-21T11:37:02.745Z,61.30
2023-03-21T11:39:34.026Z,61.23
2023-03-21T11:42:01.086Z,60.89
2023-03-21T11:44:41.322Z,60.50
2023-03-21T11:47:10.941Z,59.87
2023-03-21T11:49:38.079Z,59.65
2023-03-21T11:52:19.278Z,59.51
2023-03-21T11:55:23.737Z,59.07
2023-03-21T11:58:14.988Z,59.08
2023-03-21T12:01:13.185Z,59.31
2023-03-21T12:04:01.581Z,59.26
2023-03-21T12:06:44.293Z,58.96
2023-03-21T12:09:28.206Z,58.94
2023-03-21T12:12:03.693Z,58.73
2023-03-21T12:14:44.902Z,58.82
2023-03-21T12:17:31.370Z,58.44
2023-03-21T12:20:12.170Z,58.22
2023-03-21T12:23:02.986Z,57.64
2023-03-21T12:25:45.605Z,57.41
2023-03-21T12:28:33.243Z,57.14
2023-03-21T12:31:12.456Z,57.08
2023-03-21T12:33:54.136Z,56.66
2023-03-21T12:36:33.914Z,56.67
2023-03-21T12:39:30.066Z,56.77
2023-03-21T12:42:19.514Z,56.83
2023-03-21T12:44:54.304Z,56.92
2023-03-21T12:47:26.708Z,56.91
2023-03-21T12:50:25.259Z,56.99
2023-03-21T12:53:00.311Z,56.90
2023-03-21T12:55:32.398Z,56.95
2023-03-21T12:58:11.717Z,56.92
2023-03-21T13:00:43.698Z,56.98
2023-03-21T13:03:22.883Z,56.88
2023-03-21T13:05:58.365Z,56.71
2023-03-21T13:08:44.672Z,56.69
2023-03-21T13:11:15.857Z,56.25
2023-03-21T13:13:49.425Z,56.25
2023-03-21T13:16:21.061Z,55.89
2023-03-21T13:19:02.918Z,55.41
2023-03-21T13:22:11.658Z,55.15
2023-03-21T13:24:43.997Z,54.82
2023-03-21T13:27:30.033Z,55.07
2023-03-21T13:30:07.789Z,54.76
2023-03-21T13:32:45.761Z,54.90
2023-03-21T13:35:18.485Z,54.53
2023-03-21T13:37:56.572Z,54.14
2023-03-21T13:40:29.102Z,54.11
2023-03-21T13:43:00.577Z,54.25
2023-03-21T13:45:33.526Z,53.76
2023-03-21T13:48:27.581Z,53.63
2023-03-21T13:51:04.948Z,53.50
2023-03-21T13:53:36.682Z,53.61
2023-03-21T13:56:21.450Z,53.56
2023-03-21T13:58:48.179Z,53.40
2023-03-21T14:01:35.977Z,53.44
2023-03-21T14:04:14.748Z,53.52
2023-03-21T14:06:55.028Z,53.63
2023-03-21T14:09:33.769Z,53.86
2023-03-21T14:12:07.696Z,53.84
2023-03-21T14:14:40.539Z,54.01
2023-03-21T14:17:34.898Z,53.98
2023-03-21T14:20:14.541Z,53.99
2023-03-21T14:22:41.390Z,53.78
2023-03-21T14:25:15.787Z,53.72
2023-03-21T14:27:50.526Z,53.85
2023-03-21T14:30:38.457Z,53.63
2023-03-21T14:33:12.708Z,53.59
2023-03-21T14:35:41.758Z,53.82
2023-03-21T14:38:19.127Z,53.75
2023-03-21T14:40:52.460Z,53.80
2023-03-21T14:43:21.053Z,53.95
2023-03-21T14:45:50.383Z,54.06
2023-03-21T14:48:17.807Z,54.03
2023-03-21T14:50:52.923Z,54.07
2023-03-21T14:53:27.150Z,54.40
2023-03-21T14:55:56.953Z,54.40
2023-03-21T14:58:24.223Z,54.58
2023-03-21T15:00:51.461Z,54.77
2023-03-21T15:03:20.741Z,54.83
2023-03-21T15:05:47.934Z,55.25
2023-03-21T15:08:19.770Z,55.10
2023-03-21T15:11:07.243Z,55.35
2023-03-21T15:13:45.542Z,55.28
2023-03-21T15:16:15.001Z,55.47
2023-03-21T15:18:43.087Z,55.48
2023-03-21T15:21:16.732Z,55.96
2023-03-21T15:23:46.623Z,55.96
2023-03-21T15:26:17.040Z,56.14
2023-03-21T15:28:47.192Z,56.08
2023-03-21T15:31:20.519Z,56.35
2023-03-21T15:33:53.502Z,56.29
2023-03-21T15:36:42.719Z,56.32
2023-03-21T15:39:14.223Z,56.14
2023-03-21T15:41:43.056Z,56.25
2023-03-21T15:44:09.693Z,56.28
2023-03-21T15:46:44.769Z,56.40
2023-03-21T15:49:17.280Z,56.43
2023-03-21T15:51:55.936Z,56.59
2023-03-21T15:54:29.269Z,56.58
2023-03-21T15:56:58.012Z,56.62
2023-03-21T15:59:27.777Z,56.79
2023-03-21T16:01:54.592Z,56.74
2023-03-21T16:04:23.848Z,56.84
2023-03-21T16:07:15.437Z,56.88
2023-03-21T16:09:46.148Z,56.94
2023-03-21T16:12:15.696Z,56.83
2023-03-21T16:14:43.190Z,57.01
2023-03-21T16:17:33.708Z,57.03
2023-03-21T16:20:00.798Z,57.18
2023-03-21T16:22:28.869Z,57.33
2023-03-21T16:24:56.499Z,57.40
2023-03-21T16:27:23.087Z,57.69
2023-03-21T16:29:49.716Z,57.78
2023-03-21T16:32:18.473Z,57.87
2023-03-21T16:34:46.300Z,57.94
2023-03-21T16:37:15.842Z,57.96
2023-03-21T16:39:43.221Z,58.25
2023-03-21T16:42:13.439Z,58.39
2023-03-21T16:44:40.548Z,58.35
2023-03-21T16:47:22.694Z,58.87
2023-03-21T16:49:49.939Z,58.95
2023-03-21T16:52:16.780Z,58.75
2023-03-21T16:54:43.599Z,58.54
2023-03-21T16:57:30.802Z,58.20
2023-03-21T16:59:57.755Z,58.34
2023-03-21T17:02:26.154Z,58.32
2023-03-21T17:04:53.075Z,58.19
2023-03-21T17:07:20.655Z,58.48
2023-03-21T17:09:48.141Z,58.38
2023-03-21T17:12:16.503Z,58.45
2023-03-21T17:14:44.320Z,58.64
2023-03-21T17:17:12.922Z,58.33
2023-03-21T17:19:40.233Z,58.53
2023-03-21T17:22:07.209Z,58.97
2023-03-21T17:24:34.803Z,59.38
2023-03-21T17:27:03.318Z,59.66
2023-03-21T17:29:30.604Z,60.20
2023-03-21T17:31:57.274Z,60.36
2023-03-21T17:34:24.191Z,60.67
2023-03-21T17:36:51.014Z,60.92
2023-03-21T17:39:24.232Z,61.33
2023-03-21T17:41:52.162Z,61.56
2023-03-21T17:44:19.899Z,61.66
2023-03-21T17:46:49.543Z,61.74
2023-03-21T17:49:17.328Z,61.92
2023-03-21T17:54:29.831Z,62.11
2023-03-21T17:56:56.673Z,62.13
2023-03-21T17:59:23.377Z,62.19
2023-03-21T18:01:50.742Z,62.15
2023-03-21T18:04:17.372Z,62.24
2023-03-21T18:06:44.914Z,62.37
2023-03-21T18:09:12.627Z,62.32
2023-03-21T18:11:40.335Z,62.34
2023-03-21T18:14:16.243Z,62.29
2023-03-21T18:16:45.806Z,62.35
2023-03-21T18:19:14.922Z,62.15
2023-03-21T18:21:45.252Z,62.12
2023-03-21T18:24:13.627Z,62.25
2023-03-21T18:26:41.099Z,62.20
2023-03-21T18:32:06.660Z,62.15
2023-03-21T18:34:37.124Z,62.25
2023-03-21T18:37:07.570Z,62.34
2023-03-21T18:39:40.388Z,62.08
2023-03-21T18:42:07.828Z,62.52
2023-03-21T18:44:45.670Z,62.60
2023-03-21T18:47:12.947Z,62.85
2023-03-21T18:52:27.600Z,62.78
2023-03-21T18:54:55.987Z,62.80
2023-03-21T18:57:45.764Z,63.09
2023-03-21T19:00:30.292Z,63.19
2023-03-21T19:14:28.093Z,63.35
2023-03-21T19:17:45.499Z,63.45
2023-03-21T19:19:43.453Z,63.51
2023-03-21T19:22:11.398Z,63.56
2023-03-21T19:24:39.803Z,63.64
2023-03-21T19:27:07.844Z,63.84
2023-03-21T19:29:34.525Z,64.07
2023-03-21T19:32:01.496Z,64.13
2023-03-21T19:34:29.462Z,64.20
2023-03-21T19:36:57.522Z,64.40
2023-03-21T19:39:25.155Z,64.29
2023-03-21T19:41:55.351Z,64.21
2023-03-21T19:44:28.313Z,64.47
2023-03-21T19:46:55.126Z,64.64
2023-03-21T19:49:34.556Z,64.71
2023-03-21T19:52:09.670Z,64.70
2023-03-21T19:54:39.502Z,64.68
2023-03-21T19:57:07.348Z,64.74
2023-03-21T19:59:34.278Z,64.85
2023-03-21T20:02:17.858Z,64.74
2023-03-21T20:04:48.347Z,64.82
2023-03-21T20:07:15.719Z,64.69
2023-03-21T20:09:52.349Z,64.68
2023-03-21T20:12:20.174Z,64.63
2023-03-21T20:14:49.060Z,64.80
2023-03-21T20:17:16.630Z,64.75
2023-03-21T20:19:43.466Z,64.93
2023-03-21T20:22:21.748Z,64.83
2023-03-21T20:24:53.945Z,64.89
2023-03-21T20:27:25.107Z,64.73
2023-03-21T20:30:10.145Z,64.85
2023-03-21T20:32:41.861Z,65.14
2023-03-21T20:35:20.804Z,65.17
2023-03-21T20:37:54.302Z,65.33
2023-03-21T20:40:21.505Z,65.67
2023-03-21T20:42:48.868Z,65.80
2023-03-21T20:45:17.312Z,65.90
2023-03-21T20:47:44.133Z,65.93
2023-03-21T20:50:14.054Z,66.07
2023-03-21T20:53:07.003Z,66.24
2023-03-21T20:55:31.560Z,66.17
2023-03-21T20:58:02.091Z,66.27
2023-03-21T21:00:30.011Z,66.35
2023-03-21T21:02:57.810Z,66.57
2023-03-21T21:05:33.003Z,66.62
2023-03-21T21:08:01.431Z,66.71
2023-03-21T21:10:28.820Z,66.63
2023-03-21T21:12:55.627Z,66.64
2023-03-21T21:15:22.229Z,66.88
2023-03-21T21:18:07.125Z,66.87
2023-03-21T21:20:36.120Z,67.24
2023-03-21T21:23:03.120Z,67.60
2023-03-21T21:25:33.141Z,67.71
2023-03-21T21:28:01.845Z,67.66
2023-03-21T21:30:29.679Z,67.61
2023-03-21T21:32:59.545Z,67.89
2023-03-21T21:35:26.504Z,67.83
2023-03-21T21:37:53.948Z,67.84
2023-03-21T21:40:23.411Z,67.94
2023-03-21T21:42:50.224Z,68.00
2023-03-21T21:45:18.627Z,67.94
2023-03-21T21:47:46.518Z,68.19
2023-03-21T21:50:14.386Z,68.09
2023-03-21T21:52:43.992Z,68.17
2023-03-21T21:55:10.925Z,68.47
2023-03-21T21:57:39.753Z,68.31
2023-03-21T22:00:12.963Z,68.29
2023-03-21T22:02:41.754Z,68.48
2023-03-21T22:05:09.216Z,68.45
2023-03-21T22:07:37.621Z,68.24
2023-03-21T22:10:04.970Z,68.20
2023-03-21T22:12:32.360Z,68.33
2023-03-21T22:14:59.214Z,68.20
2023-03-21T22:17:25.820Z,68.34
2023-03-21T22:20:04.647Z,68.63
2023-03-21T22:22:34.256Z,68.45
2023-03-21T22:25:01.489Z,68.55
2023-03-21T22:27:28.117Z,68.52
2023-03-21T22:29:54.874Z,68.36
2023-03-21T22:32:21.917Z,68.40
2023-03-21T22:34:48.852Z,68.39
2023-03-21T22:37:15.748Z,68.61
2023-03-21T22:39:42.756Z,68.75
2023-03-21T22:42:09.323Z,68.93
2023-03-21T22:44:36.250Z,69.34
2023-03-21T22:47:05.278Z,69.49
2023-03-21T22:49:32.385Z,69.39
2023-03-21T22:52:00.132Z,69.84
2023-03-21T22:54:27.512Z,69.77
2023-03-21T22:56:54.165Z,69.98
2023-03-21T22:59:21.338Z,69.80
2023-03-21T23:01:48.504Z,69.63
2023-03-21T23:04:15.681Z,69.51
2023-03-21T23:06:42.562Z,69.72
2023-03-21T23:09:09.934Z,69.57
2023-03-21T23:11:40.361Z,69.46
2023-03-21T23:14:08.897Z,69.18
2023-03-21T23:16:38.351Z,69.40
2023-03-21T23:19:06.166Z,69.37
2023-03-21T23:21:34.670Z,69.44
2023-03-21T23:24:01.618Z,69.61
2023-03-21T23:26:28.633Z,69.73
2023-03-21T23:28:55.490Z,69.59
2023-03-21T23:31:24.492Z,69.56
2023-03-21T23:33:51.244Z,69.70
2023-03-21T23:36:19.726Z,69.68
2023-03-21T23:38:46.421Z,69.58
2023-03-21T23:41:19.003Z,69.79
2023-03-21T23:43:47.203Z,69.72
2023-03-21T23:46:15.568Z,69.54
2023-03-21T23:48:43.257Z,69.84
2023-03-21T23:51:12.049Z,70.18
2023-03-21T23:53:39.365Z,69.93
2023-03-21T23:56:13.865Z,70.03
2023-03-21T23:58:40.703Z,70.02
